sensor_id;sensor_type;location;lat;lon;timestamp;pressure;altitude;pressure_sealevel;temperature;humidity
71996;BME280;59862;47.732;7.346;2023-06-14T00:00:20;97446.45;;;15.84;47.69
71996;BME280;59862;47.732;7.346;2023-06-14T00:02:48;97443.36;;;15.81;47.43
71996;BME280;59862;47.732;7.346;2023-06-14T00:05:16;97448.77;;;15.81;48.15
71996;BME280;59862;47.732;7.346;2023-06-14T00:07:44;97448.17;;;15.79;47.95
71996;BME280;59862;47.732;7.346;2023-06-14T00:10:13;97448.41;;;15.77;47.37
71996;BME280;59862;47.732;7.346;2023-06-14T00:12:41;97442.65;;;15.74;47.59
71996;BME280;59862;47.732;7.346;2023-06-14T00:15:09;97444.00;;;15.74;47.43
71996;BME280;59862;47.732;7.346;2023-06-14T00:17:36;97441.48;;;15.61;47.87
71996;BME280;59862;47.732;7.346;2023-06-14T00:20:06;97441.00;;;15.64;47.52
71996;BME280;59862;47.732;7.346;2023-06-14T00:22:34;97447.00;;;15.66;48.10
71996;BME280;59862;47.732;7.346;2023-06-14T00:25:04;97443.70;;;15.64;47.89
71996;BME280;59862;47.732;7.346;2023-06-14T00:27:32;97439.06;;;15.53;49.19
71996;BME280;59862;47.732;7.346;2023-06-14T00:29:59;97447.94;;;15.51;47.71
71996;BME280;59862;47.732;7.346;2023-06-14T00:32:27;97446.16;;;15.27;48.34
71996;BME280;59862;47.732;7.346;2023-06-14T00:34:54;97443.89;;;15.33;48.32
71996;BME280;59862;47.732;7.346;2023-06-14T00:37:22;97446.44;;;15.37;47.96
71996;BME280;59862;47.732;7.346;2023-06-14T00:39:49;97444.33;;;15.39;48.13
71996;BME280;59862;47.732;7.346;2023-06-14T00:42:27;97440.11;;;15.43;47.63
71996;BME280;59862;47.732;7.346;2023-06-14T00:44:55;97445.31;;;15.44;47.33
71996;BME280;59862;47.732;7.346;2023-06-14T00:47:23;97447.11;;;15.41;47.77
71996;BME280;59862;47.732;7.346;2023-06-14T00:49:51;97447.63;;;15.41;48.04
71996;BME280;59862;47.732;7.346;2023-06-14T00:52:21;97447.63;;;15.41;48.34
71996;BME280;59862;47.732;7.346;2023-06-14T00:54:50;97443.13;;;15.35;48.83
71996;BME280;59862;47.732;7.346;2023-06-14T00:57:18;97447.78;;;15.28;48.49
71996;BME280;59862;47.732;7.346;2023-06-14T00:59:49;97447.19;;;15.26;48.40
71996;BME280;59862;47.732;7.346;2023-06-14T01:02:17;97449.30;;;15.24;48.57
71996;BME280;59862;47.732;7.346;2023-06-14T01:04:49;97447.03;;;15.20;48.17
71996;BME280;59862;47.732;7.346;2023-06-14T01:07:38;97448.70;;;15.22;48.12
71996;BME280;59862;47.732;7.346;2023-06-14T01:10:27;97451.64;;;15.20;48.05
71996;BME280;59862;47.732;7.346;2023-06-14T01:15:31;97447.19;;;15.07;49.10
71996;BME280;59862;47.732;7.346;2023-06-14T01:17:59;97457.11;;;15.04;48.94
71996;BME280;59862;47.732;7.346;2023-06-14T01:20:35;97445.98;;;15.03;48.63
71996;BME280;59862;47.732;7.346;2023-06-14T01:23:01;97445.91;;;15.10;48.26
71996;BME280;59862;47.732;7.346;2023-06-14T01:25:28;97449.77;;;15.11;48.14
71996;BME280;59862;47.732;7.346;2023-06-14T01:28:03;97443.29;;;15.12;48.26
71996;BME280;59862;47.732;7.346;2023-06-14T01:30:27;97453.66;;;15.15;48.42
71996;BME280;59862;47.732;7.346;2023-06-14T01:32:55;97453.34;;;15.14;48.23
71996;BME280;59862;47.732;7.346;2023-06-14T01:35:23;97443.00;;;15.11;48.20
71996;BME280;59862;47.732;7.346;2023-06-14T01:37:51;97445.08;;;15.09;48.43
71996;BME280;59862;47.732;7.346;2023-06-14T01:40:21;97445.38;;;15.01;48.48
71996;BME280;59862;47.732;7.346;2023-06-14T01:42:50;97443.52;;;15.02;48.09
71996;BME280;59862;47.732;7.346;2023-06-14T01:45:20;97443.00;;;15.02;48.35
71996;BME280;59862;47.732;7.346;2023-06-14T01:47:48;97437.00;;;15.00;49.03
71996;BME280;59862;47.732;7.346;2023-06-14T01:50:16;97433.53;;;14.93;49.02
71996;BME280;59862;47.732;7.346;2023-06-14T01:52:45;97433.22;;;14.92;48.91
71996;BME280;59862;47.732;7.346;2023-06-14T01:55:12;97440.52;;;14.92;49.03
71996;BME280;59862;47.732;7.346;2023-06-14T01:57:40;97434.88;;;14.84;50.12
71996;BME280;59862;47.732;7.346;2023-06-14T02:00:08;97440.80;;;14.84;49.30
71996;BME280;59862;47.732;7.346;2023-06-14T02:02:38;97437.89;;;14.85;49.46
71996;BME280;59862;47.732;7.346;2023-06-14T02:05:06;97438.77;;;14.88;49.80
71996;BME280;59862;47.732;7.346;2023-06-14T02:07:35;97438.33;;;14.82;49.94
71996;BME280;59862;47.732;7.346;2023-06-14T02:10:04;97438.39;;;14.76;49.09
71996;BME280;59862;47.732;7.346;2023-06-14T02:12:31;97442.52;;;14.78;48.93
71996;BME280;59862;47.732;7.346;2023-06-14T02:14:59;97433.44;;;14.82;49.42
71996;BME280;59862;47.732;7.346;2023-06-14T02:17:26;97440.19;;;14.82;49.59
71996;BME280;59862;47.732;7.346;2023-06-14T02:19:54;97439.98;;;14.83;49.25
71996;BME280;59862;47.732;7.346;2023-06-14T02:22:23;97436.66;;;14.81;49.22
71996;BME280;59862;47.732;7.346;2023-06-14T02:24:50;97439.51;;;14.77;49.19
71996;BME280;59862;47.732;7.346;2023-06-14T02:27:18;97439.97;;;14.74;49.24
71996;BME280;59862;47.732;7.346;2023-06-14T02:29:46;97445.30;;;14.72;49.21
71996;BME280;59862;47.732;7.346;2023-06-14T02:32:13;97440.41;;;14.71;49.21
71996;BME280;59862;47.732;7.346;2023-06-14T02:34:41;97442.66;;;14.65;49.47
71996;BME280;59862;47.732;7.346;2023-06-14T02:37:09;97447.22;;;14.65;49.41
71996;BME280;59862;47.732;7.346;2023-06-14T02:39:37;97443.63;;;14.62;49.74
71996;BME280;59862;47.732;7.346;2023-06-14T02:42:05;97447.88;;;14.60;49.27
71996;BME280;59862;47.732;7.346;2023-06-14T02:44:33;97444.30;;;14.57;49.13
71996;BME280;59862;47.732;7.346;2023-06-14T02:47:01;97449.81;;;14.53;49.36
71996;BME280;59862;47.732;7.346;2023-06-14T02:49:29;97449.81;;;14.53;49.19
71996;BME280;59862;47.732;7.346;2023-06-14T02:51:56;97449.21;;;14.51;49.57
71996;BME280;59862;47.732;7.346;2023-06-14T02:54:24;97448.75;;;14.45;50.01
71996;BME280;59862;47.732;7.346;2023-06-14T02:56:51;97454.89;;;14.43;49.81
71996;BME280;59862;47.732;7.346;2023-06-14T02:59:19;97453.03;;;14.43;49.88
71996;BME280;59862;47.732;7.346;2023-06-14T03:01:47;97457.91;;;14.44;49.73
71996;BME280;59862;47.732;7.346;2023-06-14T03:04:15;97396.66;;;14.04;49.85
71996;BME280;59862;47.732;7.346;2023-06-14T03:06:42;97453.00;;;14.34;49.85
71996;BME280;59862;47.732;7.346;2023-06-14T03:09:10;97458.31;;;14.32;50.49
71996;BME280;59862;47.732;7.346;2023-06-14T03:11:37;97459.25;;;14.28;50.30
71996;BME280;59862;47.732;7.346;2023-06-14T03:14:05;97462.70;;;14.26;49.92
71996;BME280;59862;47.732;7.346;2023-06-14T03:16:33;97462.70;;;14.26;50.53
71996;BME280;59862;47.732;7.346;2023-06-14T03:19:01;97467.69;;;14.23;50.21
71996;BME280;59862;47.732;7.346;2023-06-14T03:21:29;97462.05;;;14.15;50.85
71996;BME280;59862;47.732;7.346;2023-06-14T03:23:56;97466.61;;;14.15;50.77
71996;BME280;59862;47.732;7.346;2023-06-14T03:26:23;97470.80;;;14.11;50.85
71996;BME280;59862;47.732;7.346;2023-06-14T03:28:51;97471.53;;;14.09;50.64
71996;BME280;59862;47.732;7.346;2023-06-14T03:31:18;97473.02;;;14.05;51.11
71996;BME280;59862;47.732;7.346;2023-06-14T03:33:46;97479.91;;;14.01;50.83
71996;BME280;59862;47.732;7.346;2023-06-14T03:36:13;97480.33;;;13.98;51.56
71996;BME280;59862;47.732;7.346;2023-06-14T03:38:41;97477.44;;;13.93;51.65
71996;BME280;59862;47.732;7.346;2023-06-14T03:41:08;97481.02;;;13.87;51.61
71996;BME280;59862;47.732;7.346;2023-06-14T03:43:36;97486.27;;;13.91;51.10
71996;BME280;59862;47.732;7.346;2023-06-14T03:46:03;97482.55;;;13.92;51.25
71996;BME280;59862;47.732;7.346;2023-06-14T03:48:31;97493.34;;;13.92;52.09
71996;BME280;59862;47.732;7.346;2023-06-14T03:50:58;97496.49;;;13.82;52.29
71996;BME280;59862;47.732;7.346;2023-06-14T03:53:26;97495.56;;;13.86;52.18
71996;BME280;59862;47.732;7.346;2023-06-14T03:55:56;97500.50;;;13.89;51.71
71996;BME280;59862;47.732;7.346;2023-06-14T03:58:24;97504.26;;;13.88;51.87
71996;BME280;59862;47.732;7.346;2023-06-14T04:00:51;97505.48;;;13.92;51.75
71996;BME280;59862;47.732;7.346;2023-06-14T04:03:19;97507.85;;;13.91;52.17
71996;BME280;59862;47.732;7.346;2023-06-14T04:05:48;97508.59;;;13.89;52.55
71996;BME280;59862;47.732;7.346;2023-06-14T04:08:15;97519.57;;;13.94;52.24
71996;BME280;59862;47.732;7.346;2023-06-14T04:10:44;97519.95;;;13.97;52.16
71996;BME280;59862;47.732;7.346;2023-06-14T04:13:12;97522.45;;;13.99;52.30
71996;BME280;59862;47.732;7.346;2023-06-14T04:15:39;97525.86;;;14.03;52.65
71996;BME280;59862;47.732;7.346;2023-06-14T04:18:12;97528.37;;;13.98;51.82
71996;BME280;59862;47.732;7.346;2023-06-14T04:20:40;97531.35;;;13.99;51.49
71996;BME280;59862;47.732;7.346;2023-06-14T04:23:15;97533.41;;;14.04;51.38
71996;BME280;59862;47.732;7.346;2023-06-14T04:25:45;97532.58;;;14.19;51.69
71996;BME280;59862;47.732;7.346;2023-06-14T04:28:14;97542.53;;;14.25;52.23
71996;BME280;59862;47.732;7.346;2023-06-14T04:30:43;97546.95;;;14.35;51.69
71996;BME280;59862;47.732;7.346;2023-06-14T04:33:11;97546.39;;;14.42;51.04
71996;BME280;59862;47.732;7.346;2023-06-14T04:35:40;97558.27;;;14.50;51.01
71996;BME280;59862;47.732;7.346;2023-06-14T04:38:07;97555.89;;;14.60;51.06
71996;BME280;59862;47.732;7.346;2023-06-14T04:40:36;97550.53;;;14.69;51.05
71996;BME280;59862;47.732;7.346;2023-06-14T04:43:09;97547.40;;;14.72;51.47
71996;BME280;59862;47.732;7.346;2023-06-14T04:45:39;97551.08;;;14.78;51.73
71996;BME280;59862;47.732;7.346;2023-06-14T04:48:07;97549.96;;;14.76;52.28
71996;BME280;59862;47.732;7.346;2023-06-14T04:50:35;97551.86;;;14.85;51.71
71996;BME280;59862;47.732;7.346;2023-06-14T04:53:02;97555.53;;;14.90;51.22
71996;BME280;59862;47.732;7.346;2023-06-14T04:55:30;97561.23;;;14.82;50.98
71996;BME280;59862;47.732;7.346;2023-06-14T04:57:59;97558.70;;;14.87;51.37
71996;BME280;59862;47.732;7.346;2023-06-14T05:00:26;97565.59;;;14.92;51.56
71996;BME280;59862;47.732;7.346;2023-06-14T05:02:53;97570.74;;;15.00;51.19
71996;BME280;59862;47.732;7.346;2023-06-14T05:05:21;97569.39;;;15.00;51.01
71996;BME280;59862;47.732;7.346;2023-06-14T05:07:49;97571.11;;;15.04;51.00
71996;BME280;59862;47.732;7.346;2023-06-14T05:10:16;97563.17;;;15.09;51.20
71996;BME280;59862;47.732;7.346;2023-06-14T05:12:44;97571.42;;;15.14;51.56
71996;BME280;59862;47.732;7.346;2023-06-14T05:15:12;97575.28;;;15.15;50.89
71996;BME280;59862;47.732;7.346;2023-06-14T05:17:39;97573.78;;;15.19;50.53
71996;BME280;59862;47.732;7.346;2023-06-14T05:20:08;97574.67;;;15.23;50.51
71996;BME280;59862;47.732;7.346;2023-06-14T05:22:37;97576.33;;;15.24;50.49
71996;BME280;59862;47.732;7.346;2023-06-14T05:25:05;97573.48;;;15.28;50.17
71996;BME280;59862;47.732;7.346;2023-06-14T05:27:33;97573.65;;;15.33;49.87
71996;BME280;59862;47.732;7.346;2023-06-14T05:30:02;97575.81;;;15.42;50.01
71996;BME280;59862;47.732;7.346;2023-06-14T05:32:30;97569.78;;;15.56;50.16
71996;BME280;59862;47.732;7.346;2023-06-14T05:34:57;97573.84;;;15.74;50.13
71996;BME280;59862;47.732;7.346;2023-06-14T05:37:25;97575.80;;;15.76;50.03
71996;BME280;59862;47.732;7.346;2023-06-14T05:39:52;97580.61;;;15.83;49.08
71996;BME280;59862;47.732;7.346;2023-06-14T05:42:20;97588.65;;;15.89;49.42
71996;BME280;59862;47.732;7.346;2023-06-14T05:44:47;97586.45;;;15.98;49.11
71996;BME280;59862;47.732;7.346;2023-06-14T05:47:15;97589.77;;;16.00;48.71
71996;BME280;59862;47.732;7.346;2023-06-14T05:49:42;97592.59;;;15.96;49.26
71996;BME280;59862;47.732;7.346;2023-06-14T05:52:10;97591.24;;;15.96;49.25
71996;BME280;59862;47.732;7.346;2023-06-14T05:54:39;97595.60;;;16.15;49.41
71996;BME280;59862;47.732;7.346;2023-06-14T05:57:07;97593.91;;;16.32;49.50
71996;BME280;59862;47.732;7.346;2023-06-14T05:59:35;97597.95;;;16.41;49.28
71996;BME280;59862;47.732;7.346;2023-06-14T06:02:02;97597.08;;;16.59;49.03
71996;BME280;59862;47.732;7.346;2023-06-14T06:04:30;97598.05;;;16.64;48.53
71996;BME280;59862;47.732;7.346;2023-06-14T06:06:57;97604.00;;;16.85;48.85
71996;BME280;59862;47.732;7.346;2023-06-14T06:09:25;97606.61;;;17.03;48.68
71996;BME280;59862;47.732;7.346;2023-06-14T06:11:52;97603.09;;;17.14;47.80
71996;BME280;59862;47.732;7.346;2023-06-14T06:14:19;97606.70;;;17.17;47.04
71996;BME280;59862;47.732;7.346;2023-06-14T06:16:47;97605.32;;;17.05;47.34
71996;BME280;59862;47.732;7.346;2023-06-14T06:19:14;97603.67;;;17.16;47.87
71996;BME280;59862;47.732;7.346;2023-06-14T06:21:42;97606.00;;;17.21;47.66
71996;BME280;59862;47.732;7.346;2023-06-14T06:24:10;97611.77;;;17.25;47.08
71996;BME280;59862;47.732;7.346;2023-06-14T06:26:37;97614.55;;;17.27;46.70
71996;BME280;59862;47.732;7.346;2023-06-14T06:29:06;97615.48;;;17.44;47.25
71996;BME280;59862;47.732;7.346;2023-06-14T06:31:33;97609.79;;;17.55;46.75
71996;BME280;59862;47.732;7.346;2023-06-14T06:34:00;97619.10;;;17.59;46.23
71996;BME280;59862;47.732;7.346;2023-06-14T06:36:29;97627.37;;;17.64;46.72
71996;BME280;59862;47.732;7.346;2023-06-14T06:38:56;97628.57;;;17.82;46.63
71996;BME280;59862;47.732;7.346;2023-06-14T06:41:24;97631.03;;;17.95;45.89
71996;BME280;59862;47.732;7.346;2023-06-14T06:43:51;97627.83;;;18.10;45.94
71996;BME280;59862;47.732;7.346;2023-06-14T06:46:19;97628.36;;;18.09;46.00
71996;BME280;59862;47.732;7.346;2023-06-14T06:48:46;97628.86;;;18.21;45.51
71996;BME280;59862;47.732;7.346;2023-06-14T06:51:14;97629.95;;;18.34;44.78
71996;BME280;59862;47.732;7.346;2023-06-14T06:53:43;97635.07;;;18.33;44.51
71996;BME280;59862;47.732;7.346;2023-06-14T06:56:10;97636.81;;;18.39;44.78
71996;BME280;59862;47.732;7.346;2023-06-14T06:58:38;97629.75;;;18.38;44.05
71996;BME280;59862;47.732;7.346;2023-06-14T07:01:05;97635.20;;;18.52;44.32
71996;BME280;59862;47.732;7.346;2023-06-14T07:03:33;97633.68;;;18.56;43.93
71996;BME280;59862;47.732;7.346;2023-06-14T07:06:00;97642.02;;;18.66;42.79
71996;BME280;59862;47.732;7.346;2023-06-14T07:08:28;97633.91;;;18.68;43.68
71996;BME280;59862;47.732;7.346;2023-06-14T07:10:55;97641.84;;;18.86;43.91
71996;BME280;59862;47.732;7.346;2023-06-14T07:13:23;97643.56;;;19.07;43.81
71996;BME280;59862;47.732;7.346;2023-06-14T07:15:54;97645.50;;;19.25;43.53
71996;BME280;59862;47.732;7.346;2023-06-14T07:18:19;97647.36;;;19.36;43.10
71996;BME280;59862;47.732;7.346;2023-06-14T07:20:47;97648.64;;;19.48;41.58
71996;BME280;59862;47.732;7.346;2023-06-14T07:23:14;97648.26;;;19.58;42.03
71996;BME280;59862;47.732;7.346;2023-06-14T07:25:42;97647.81;;;19.64;41.63
71996;BME280;59862;47.732;7.346;2023-06-14T07:28:09;97646.64;;;19.77;41.16
71996;BME280;59862;47.732;7.346;2023-06-14T07:30:36;97646.12;;;19.80;39.97
71996;BME280;59862;47.732;7.346;2023-06-14T07:33:04;97650.64;;;19.91;40.90
71996;BME280;59862;47.732;7.346;2023-06-14T07:35:32;97646.19;;;20.04;40.90
71996;BME280;59862;47.732;7.346;2023-06-14T07:37:59;97646.58;;;20.12;40.33
71996;BME280;59862;47.732;7.346;2023-06-14T07:40:26;97646.13;;;20.18;41.17
71996;BME280;59862;47.732;7.346;2023-06-14T07:42:54;97647.48;;;20.37;40.29
71996;BME280;59862;47.732;7.346;2023-06-14T07:45:21;97649.12;;;20.62;39.28
71996;BME280;59862;47.732;7.346;2023-06-14T07:47:49;97654.41;;;20.71;39.48
71996;BME280;59862;47.732;7.346;2023-06-14T07:50:17;97654.02;;;20.84;38.53
71996;BME280;59862;47.732;7.346;2023-06-14T07:52:45;97655.70;;;20.90;38.83
71996;BME280;59862;47.732;7.346;2023-06-14T07:55:14;97657.61;;;20.87;38.32
71996;BME280;59862;47.732;7.346;2023-06-14T07:57:42;97659.80;;;21.14;38.12
71996;BME280;59862;47.732;7.346;2023-06-14T08:00:11;97657.28;;;21.40;39.14
71996;BME280;59862;47.732;7.346;2023-06-14T08:02:46;97660.74;;;21.62;37.20
71996;BME280;59862;47.732;7.346;2023-06-14T08:05:11;97664.59;;;21.66;37.55
71996;BME280;59862;47.732;7.346;2023-06-14T08:07:39;97654.31;;;21.78;36.78
71996;BME280;59862;47.732;7.346;2023-06-14T08:10:07;97648.94;;;21.88;36.86
71996;BME280;59862;47.732;7.346;2023-06-14T08:12:35;97648.83;;;22.15;36.17
71996;BME280;59862;47.732;7.346;2023-06-14T08:15:05;97653.28;;;22.33;36.38
71996;BME280;59862;47.732;7.346;2023-06-14T08:17:32;97656.45;;;22.62;35.61
71996;BME280;59862;47.732;7.346;2023-06-14T08:19:59;97662.48;;;22.74;35.08
71996;BME280;59862;47.732;7.346;2023-06-14T08:22:27;97659.80;;;22.84;34.40
71996;BME280;59862;47.732;7.346;2023-06-14T08:24:56;97664.19;;;22.90;34.24
71996;BME280;59862;47.732;7.346;2023-06-14T08:27:24;97653.29;;;23.20;34.46
71996;BME280;59862;47.732;7.346;2023-06-14T08:29:53;97660.41;;;23.24;33.42
71996;BME280;59862;47.732;7.346;2023-06-14T08:32:21;97660.13;;;23.30;34.24
71996;BME280;59862;47.732;7.346;2023-06-14T08:34:49;97663.48;;;23.60;34.68
71996;BME280;59862;47.732;7.346;2023-06-14T08:37:16;97664.27;;;23.78;33.90
71996;BME280;59862;47.732;7.346;2023-06-14T08:39:44;97661.25;;;23.85;33.78
71996;BME280;59862;47.732;7.346;2023-06-14T08:42:13;97659.88;;;24.13;33.56
71996;BME280;59862;47.732;7.346;2023-06-14T08:44:41;97657.84;;;24.41;32.89
71996;BME280;59862;47.732;7.346;2023-06-14T08:47:09;97666.11;;;24.33;31.41
71996;BME280;59862;47.732;7.346;2023-06-14T08:49:38;97666.36;;;24.39;32.19
71996;BME280;59862;47.732;7.346;2023-06-14T08:52:09;97659.20;;;24.46;32.67
71996;BME280;59862;47.732;7.346;2023-06-14T08:54:39;97661.59;;;24.65;31.51
71996;BME280;59862;47.732;7.346;2023-06-14T08:57:11;97661.57;;;24.70;32.51
71996;BME280;59862;47.732;7.346;2023-06-14T08:59:45;97659.44;;;25.13;32.12
71996;BME280;59862;47.732;7.346;2023-06-14T09:02:11;97662.26;;;25.03;31.36
71996;BME280;59862;47.732;7.346;2023-06-14T09:04:40;97666.22;;;25.23;30.69
71996;BME280;59862;47.732;7.346;2023-06-14T09:07:08;97669.44;;;25.38;30.51
71996;BME280;59862;47.732;7.346;2023-06-14T09:09:40;97674.35;;;25.38;29.88
71996;BME280;59862;47.732;7.346;2023-06-14T09:12:10;97676.89;;;25.30;30.40
71996;BME280;59862;47.732;7.346;2023-06-14T09:14:39;97674.25;;;25.12;28.57
71996;BME280;59862;47.732;7.346;2023-06-14T09:17:08;97676.44;;;25.18;28.93
71996;BME280;59862;47.732;7.346;2023-06-14T09:19:36;97679.41;;;25.24;28.72
71996;BME280;59862;47.732;7.346;2023-06-14T09:22:05;97672.08;;;25.14;29.40
71996;BME280;59862;47.732;7.346;2023-06-14T09:24:32;97675.39;;;25.52;28.72
71996;BME280;59862;47.732;7.346;2023-06-14T09:27:00;97680.78;;;25.65;28.49
71996;BME280;59862;47.732;7.346;2023-06-14T09:29:27;97679.82;;;25.80;28.23
71996;BME280;59862;47.732;7.346;2023-06-14T09:31:55;97675.94;;;25.86;28.66
71996;BME280;59862;47.732;7.346;2023-06-14T09:34:22;97679.45;;;26.22;27.22
71996;BME280;59862;47.732;7.346;2023-06-14T09:36:51;97678.00;;;26.51;27.76
71996;BME280;59862;47.732;7.346;2023-06-14T09:39:18;97683.11;;;26.63;27.25
71996;BME280;59862;47.732;7.346;2023-06-14T09:41:46;97676.34;;;26.79;25.37
71996;BME280;59862;47.732;7.346;2023-06-14T09:44:13;97682.80;;;26.64;23.79
71996;BME280;59862;47.732;7.346;2023-06-14T09:46:41;97676.23;;;26.63;24.45
71996;BME280;59862;47.732;7.346;2023-06-14T09:49:09;97682.36;;;26.57;25.15
71996;BME280;59862;47.732;7.346;2023-06-14T09:51:45;97680.23;;;26.49;24.71
71996;BME280;59862;47.732;7.346;2023-06-14T09:54:18;97683.64;;;26.41;25.02
71996;BME280;59862;47.732;7.346;2023-06-14T09:56:47;97685.72;;;26.52;25.10
71996;BME280;59862;47.732;7.346;2023-06-14T09:59:26;97682.80;;;26.64;24.86
71996;BME280;59862;47.732;7.346;2023-06-14T10:01:47;97686.77;;;26.79;25.13
71996;BME280;59862;47.732;7.346;2023-06-14T10:04:18;97677.03;;;27.08;25.09
71996;BME280;59862;47.732;7.346;2023-06-14T10:06:46;97678.86;;;28.19;24.53
71996;BME280;59862;47.732;7.346;2023-06-14T10:09:14;97684.73;;;29.24;23.15
71996;BME280;59862;47.732;7.346;2023-06-14T10:11:43;97687.67;;;30.30;21.76
71996;BME280;59862;47.732;7.346;2023-06-14T10:14:12;97682.78;;;31.05;21.15
71996;BME280;59862;47.732;7.346;2023-06-14T10:17:04;97674.16;;;32.18;20.01
71996;BME280;59862;47.732;7.346;2023-06-14T10:20:27;97674.55;;;32.54;19.69
71996;BME280;59862;47.732;7.346;2023-06-14T10:22:14;97683.00;;;33.25;18.16
71996;BME280;59862;47.732;7.346;2023-06-14T10:24:46;97675.69;;;33.76;17.82
71996;BME280;59862;47.732;7.346;2023-06-14T10:27:15;97685.72;;;33.89;17.42
71996;BME280;59862;47.732;7.346;2023-06-14T10:32:28;97669.66;;;34.46;17.51
71996;BME280;59862;47.732;7.346;2023-06-14T10:35:04;97669.65;;;33.74;17.84
71996;BME280;59862;47.732;7.346;2023-06-14T10:37:30;97671.81;;;33.95;17.86
71996;BME280;59862;47.732;7.346;2023-06-14T10:39:58;97668.53;;;34.83;17.65
71996;BME280;59862;47.732;7.346;2023-06-14T10:42:33;97670.44;;;34.28;17.70
71996;BME280;59862;47.732;7.346;2023-06-14T10:45:01;97669.49;;;36.03;16.70
71996;BME280;59862;47.732;7.346;2023-06-14T10:47:31;97669.86;;;36.23;16.03
71996;BME280;59862;47.732;7.346;2023-06-14T10:50:06;97673.42;;;35.80;16.29
71996;BME280;59862;47.732;7.346;2023-06-14T10:52:39;97668.75;;;36.12;15.97
71996;BME280;59862;47.732;7.346;2023-06-14T10:55:09;97672.99;;;35.02;16.85
71996;BME280;59862;47.732;7.346;2023-06-14T10:57:52;97659.67;;;33.79;17.98
71996;BME280;59862;47.732;7.346;2023-06-14T11:00:27;97661.27;;;35.54;16.80
71996;BME280;59862;47.732;7.346;2023-06-14T11:11:09;97656.56;;;36.63;15.46
71996;BME280;59862;47.732;7.346;2023-06-14T11:13:45;97651.13;;;34.74;16.06
71996;BME280;59862;47.732;7.346;2023-06-14T11:16:17;97643.59;;;35.44;15.75
71996;BME280;59862;47.732;7.346;2023-06-14T11:18:48;97647.55;;;36.17;15.43
71996;BME280;59862;47.732;7.346;2023-06-14T11:21:18;97649.25;;;35.14;16.82
71996;BME280;59862;47.732;7.346;2023-06-14T11:23:51;97643.97;;;35.76;16.06
71996;BME280;59862;47.732;7.346;2023-06-14T11:26:27;97643.39;;;36.79;15.59
71996;BME280;59862;47.732;7.346;2023-06-14T11:28:59;97641.67;;;36.22;15.35
71996;BME280;59862;47.732;7.346;2023-06-14T11:31:28;97647.88;;;36.99;15.59
71996;BME280;59862;47.732;7.346;2023-06-14T11:33:57;97648.02;;;37.38;14.95
71996;BME280;59862;47.732;7.346;2023-06-14T11:36:30;97639.91;;;37.71;14.67
71996;BME280;59862;47.732;7.346;2023-06-14T11:39:00;97641.92;;;37.70;14.79
71996;BME280;59862;47.732;7.346;2023-06-14T11:41:32;97641.09;;;36.75;14.73
71996;BME280;59862;47.732;7.346;2023-06-14T11:44:01;97643.89;;;36.44;15.55
71996;BME280;59862;47.732;7.346;2023-06-14T11:46:30;97644.58;;;37.29;14.43
71996;BME280;59862;47.732;7.346;2023-06-14T11:48:57;97641.48;;;36.83;15.57
71996;BME280;59862;47.732;7.346;2023-06-14T11:51:25;97638.39;;;37.64;14.83
71996;BME280;59862;47.732;7.346;2023-06-14T11:53:54;97627.20;;;37.83;14.40
71996;BME280;59862;47.732;7.346;2023-06-14T11:56:22;97620.25;;;37.96;13.64
71996;BME280;59862;47.732;7.346;2023-06-14T11:58:49;97594.03;;;38.85;13.82
71996;BME280;59862;47.732;7.346;2023-06-14T12:01:18;97627.55;;;38.01;14.41
71996;BME280;59862;47.732;7.346;2023-06-14T12:03:53;97626.83;;;37.94;14.89
71996;BME280;59862;47.732;7.346;2023-06-14T12:06:28;97623.63;;;38.60;14.16
71996;BME280;59862;47.732;7.346;2023-06-14T12:08:59;97618.91;;;37.71;13.99
71996;BME280;59862;47.732;7.346;2023-06-14T12:11:35;97614.41;;;37.76;14.78
71996;BME280;59862;47.732;7.346;2023-06-14T12:14:04;97625.83;;;37.39;14.99
71996;BME280;59862;47.732;7.346;2023-06-14T12:16:34;97619.53;;;37.16;14.97
71996;BME280;59862;47.732;7.346;2023-06-14T12:19:11;97617.45;;;37.13;14.60
71996;BME280;59862;47.732;7.346;2023-06-14T12:21:39;97619.83;;;36.96;15.05
71996;BME280;59862;47.732;7.346;2023-06-14T12:24:08;97614.56;;;37.35;14.46
71996;BME280;59862;47.732;7.346;2023-06-14T12:26:41;97614.81;;;38.35;14.65
71996;BME280;59862;47.732;7.346;2023-06-14T12:29:09;97614.86;;;39.53;13.62
71996;BME280;59862;47.732;7.346;2023-06-14T12:31:38;97617.70;;;39.01;13.62
71996;BME280;59862;47.732;7.346;2023-06-14T12:34:07;97627.94;;;39.12;13.96
71996;BME280;59862;47.732;7.346;2023-06-14T12:36:35;97627.75;;;38.89;13.30
71996;BME280;59862;47.732;7.346;2023-06-14T12:39:04;97620.21;;;39.49;13.44
71996;BME280;59862;47.732;7.346;2023-06-14T12:41:32;97625.42;;;40.09;13.28
71996;BME280;59862;47.732;7.346;2023-06-14T12:44:00;97607.17;;;38.94;13.78
71996;BME280;59862;47.732;7.346;2023-06-14T12:46:30;97606.20;;;39.35;13.89
71996;BME280;59862;47.732;7.346;2023-06-14T12:48:59;97612.27;;;40.57;12.74
71996;BME280;59862;47.732;7.346;2023-06-14T12:51:26;97616.99;;;40.94;12.65
71996;BME280;59862;47.732;7.346;2023-06-14T12:53:54;97614.09;;;40.19;12.78
71996;BME280;59862;47.732;7.346;2023-06-14T12:56:21;97615.12;;;39.71;13.21
71996;BME280;59862;47.732;7.346;2023-06-14T12:58:49;97618.02;;;40.71;12.75
71996;BME280;59862;47.732;7.346;2023-06-14T13:01:16;97617.70;;;39.99;13.17
71996;BME280;59862;47.732;7.346;2023-06-14T13:03:45;97628.41;;;40.88;12.15
71996;BME280;59862;47.732;7.346;2023-06-14T13:06:12;97617.47;;;41.03;12.37
71996;BME280;59862;47.732;7.346;2023-06-14T13:08:40;97623.45;;;40.13;12.70
71996;BME280;59862;47.732;7.346;2023-06-14T13:11:07;97617.55;;;40.83;12.52
71996;BME280;59862;47.732;7.346;2023-06-14T13:13:35;97618.20;;;40.08;13.78
71996;BME280;59862;47.732;7.346;2023-06-14T13:16:02;97619.86;;;40.77;12.76
71996;BME280;59862;47.732;7.346;2023-06-14T13:18:30;97616.81;;;41.23;13.07
71996;BME280;59862;47.732;7.346;2023-06-14T13:20:57;97623.63;;;41.22;12.65